sensor_id;sensor_type;location;lat;lon;timestamp;P1;durP1;ratioP1;P2;durP2;ratioP2
982;SDS011;480;48.124;11.578;2022-09-27T00:00:10;1.40;;;1.27;;
982;SDS011;480;48.124;11.578;2022-09-27T00:02:38;2.10;;;2.00;;
982;SDS011;480;48.124;11.578;2022-09-27T00:05:05;1.70;;;1.27;;
982;SDS011;480;48.124;11.578;2022-09-27T00:07:33;1.83;;;1.63;;
982;SDS011;480;48.124;11.578;2022-09-27T00:10:00;1.30;;;1.10;;
982;SDS011;480;48.124;11.578;2022-09-27T00:12:27;1.80;;;1.23;;
982;SDS011;480;48.124;11.578;2022-09-27T00:14:56;1.73;;;1.40;;
982;SDS011;480;48.124;11.578;2022-09-27T00:17:24;1.53;;;1.43;;
982;SDS011;480;48.124;11.578;2022-09-27T00:19:52;1.50;;;1.40;;
982;SDS011;480;48.124;11.578;2022-09-27T00:22:20;1.50;;;1.40;;
982;SDS011;480;48.124;11.578;2022-09-27T00:24:47;1.60;;;1.50;;
982;SDS011;480;48.124;11.578;2022-09-27T00:27:14;2.57;;;1.57;;
982;SDS011;480;48.124;11.578;2022-09-27T00:29:42;1.83;;;1.70;;
982;SDS011;480;48.124;11.578;2022-09-27T00:32:10;1.80;;;1.67;;
982;SDS011;480;48.124;11.578;2022-09-27T00:34:38;1.70;;;1.60;;
982;SDS011;480;48.124;11.578;2022-09-27T00:37:06;2.13;;;1.33;;
982;SDS011;480;48.124;11.578;2022-09-27T00:39:33;1.90;;;1.20;;
982;SDS011;480;48.124;11.578;2022-09-27T00:42:02;1.30;;;1.20;;
982;SDS011;480;48.124;11.578;2022-09-27T00:47:37;1.87;;;1.27;;
982;SDS011;480;48.124;11.578;2022-09-27T00:50:17;1.67;;;1.57;;
982;SDS011;480;48.124;11.578;2022-09-27T00:52:54;1.40;;;1.30;;
982;SDS011;480;48.124;11.578;2022-09-27T00:55:36;1.33;;;1.23;;
982;SDS011;480;48.124;11.578;2022-09-27T00:58:05;1.70;;;1.60;;
982;SDS011;480;48.124;11.578;2022-09-27T01:00:33;1.40;;;1.30;;
982;SDS011;480;48.124;11.578;2022-09-27T01:03:06;1.30;;;1.20;;
982;SDS011;480;48.124;11.578;2022-09-27T01:05:38;1.00;;;0.90;;
982;SDS011;480;48.124;11.578;2022-09-27T01:08:06;1.30;;;1.20;;
982;SDS011;480;48.124;11.578;2022-09-27T01:10:35;2.17;;;2.00;;
982;SDS011;480;48.124;11.578;2022-09-27T01:13:12;1.70;;;1.60;;
982;SDS011;480;48.124;11.578;2022-09-27T01:15:47;2.17;;;1.43;;
982;SDS011;480;48.124;11.578;2022-09-27T01:18:29;1.33;;;1.17;;
982;SDS011;480;48.124;11.578;2022-09-27T01:21:09;1.90;;;1.80;;
982;SDS011;480;48.124;11.578;2022-09-27T01:24:10;1.93;;;1.53;;
982;SDS011;480;48.124;11.578;2022-09-27T01:30:14;2.10;;;1.40;;
982;SDS011;480;48.124;11.578;2022-09-27T01:32:47;1.93;;;1.73;;
982;SDS011;480;48.124;11.578;2022-09-27T01:35:20;2.23;;;2.03;;
982;SDS011;480;48.124;11.578;2022-09-27T01:37:53;1.73;;;1.60;;
982;SDS011;480;48.124;11.578;2022-09-27T01:40:28;1.93;;;1.83;;
982;SDS011;480;48.124;11.578;2022-09-27T01:43:04;1.60;;;1.50;;
982;SDS011;480;48.124;11.578;2022-09-27T01:45:37;1.40;;;1.30;;
982;SDS011;480;48.124;11.578;2022-09-27T01:48:08;2.70;;;1.60;;
982;SDS011;480;48.124;11.578;2022-09-27T01:50:38;5.20;;;2.13;;
982;SDS011;480;48.124;11.578;2022-09-27T01:53:08;2.17;;;1.67;;
982;SDS011;480;48.124;11.578;2022-09-27T01:55:40;1.80;;;1.70;;
982;SDS011;480;48.124;11.578;2022-09-27T01:58:11;2.77;;;1.67;;
982;SDS011;480;48.124;11.578;2022-09-27T02:00:44;1.83;;;1.70;;
982;SDS011;480;48.124;11.578;2022-09-27T02:03:15;1.20;;;1.20;;
982;SDS011;480;48.124;11.578;2022-09-27T02:05:46;2.20;;;2.10;;
982;SDS011;480;48.124;11.578;2022-09-27T02:08:19;2.30;;;2.20;;
982;SDS011;480;48.124;11.578;2022-09-27T02:10:51;1.60;;;1.50;;
982;SDS011;480;48.124;11.578;2022-09-27T02:13:23;4.17;;;1.57;;
982;SDS011;480;48.124;11.578;2022-09-27T02:16:00;1.97;;;1.87;;
982;SDS011;480;48.124;11.578;2022-09-27T02:18:39;1.80;;;1.70;;
982;SDS011;480;48.124;11.578;2022-09-27T02:21:15;2.77;;;1.60;;
982;SDS011;480;48.124;11.578;2022-09-27T02:23:45;2.07;;;1.70;;
982;SDS011;480;48.124;11.578;2022-09-27T02:26:16;2.57;;;1.80;;
982;SDS011;480;48.124;11.578;2022-09-27T02:28:46;2.17;;;2.07;;
982;SDS011;480;48.124;11.578;2022-09-27T02:31:19;2.23;;;2.03;;
982;SDS011;480;48.124;11.578;2022-09-27T02:33:47;2.40;;;1.93;;
982;SDS011;480;48.124;11.578;2022-09-27T02:36:17;2.07;;;1.97;;
982;SDS011;480;48.124;11.578;2022-09-27T02:38:45;2.83;;;1.87;;
982;SDS011;480;48.124;11.578;2022-09-27T02:41:13;2.07;;;1.87;;
982;SDS011;480;48.124;11.578;2022-09-27T02:43:40;2.47;;;2.30;;
982;SDS011;480;48.124;11.578;2022-09-27T02:46:14;2.00;;;1.73;;
982;SDS011;480;48.124;11.578;2022-09-27T02:48:54;2.00;;;1.90;;
982;SDS011;480;48.124;11.578;2022-09-27T02:51:33;2.70;;;2.50;;
982;SDS011;480;48.124;11.578;2022-09-27T02:54:12;2.63;;;2.43;;
982;SDS011;480;48.124;11.578;2022-09-27T02:56:47;2.77;;;2.23;;
982;SDS011;480;48.124;11.578;2022-09-27T02:59:27;2.60;;;1.93;;
982;SDS011;480;48.124;11.578;2022-09-27T03:02:05;6.60;;;3.17;;
982;SDS011;480;48.124;11.578;2022-09-27T03:04:38;3.17;;;2.20;;
982;SDS011;480;48.124;11.578;2022-09-27T03:07:09;2.60;;;2.10;;
982;SDS011;480;48.124;11.578;2022-09-27T03:09:41;2.53;;;2.20;;
982;SDS011;480;48.124;11.578;2022-09-27T03:12:10;2.60;;;2.17;;
982;SDS011;480;48.124;11.578;2022-09-27T03:14:37;2.17;;;2.07;;
982;SDS011;480;48.124;11.578;2022-09-27T03:17:06;2.33;;;2.17;;
982;SDS011;480;48.124;11.578;2022-09-27T03:19:33;2.43;;;2.23;;
982;SDS011;480;48.124;11.578;2022-09-27T03:22:00;1.80;;;1.70;;
982;SDS011;480;48.124;11.578;2022-09-27T03:24:27;2.77;;;2.10;;
982;SDS011;480;48.124;11.578;2022-09-27T03:26:54;2.40;;;2.20;;
982;SDS011;480;48.124;11.578;2022-09-27T03:29:21;2.63;;;2.10;;
982;SDS011;480;48.124;11.578;2022-09-27T03:31:49;2.00;;;1.80;;
982;SDS011;480;48.124;11.578;2022-09-27T03:34:17;2.00;;;1.90;;
982;SDS011;480;48.124;11.578;2022-09-27T03:36:44;2.20;;;2.10;;
982;SDS011;480;48.124;11.578;2022-09-27T03:39:11;2.23;;;2.07;;
982;SDS011;480;48.124;11.578;2022-09-27T03:41:38;2.13;;;1.97;;
982;SDS011;480;48.124;11.578;2022-09-27T03:44:05;2.03;;;1.93;;
982;SDS011;480;48.124;11.578;2022-09-27T03:46:33;3.50;;;2.30;;
982;SDS011;480;48.124;11.578;2022-09-27T03:49:00;2.63;;;2.40;;
982;SDS011;480;48.124;11.578;2022-09-27T03:51:28;2.67;;;1.80;;
982;SDS011;480;48.124;11.578;2022-09-27T03:53:55;2.57;;;2.37;;
982;SDS011;480;48.124;11.578;2022-09-27T03:56:22;2.17;;;1.97;;
982;SDS011;480;48.124;11.578;2022-09-27T03:58:49;2.10;;;1.83;;
982;SDS011;480;48.124;11.578;2022-09-27T04:01:16;2.90;;;2.63;;
982;SDS011;480;48.124;11.578;2022-09-27T04:03:43;2.27;;;2.07;;
982;SDS011;480;48.124;11.578;2022-09-27T04:06:10;1.97;;;1.60;;
982;SDS011;480;48.124;11.578;2022-09-27T04:08:39;2.40;;;2.00;;
982;SDS011;480;48.124;11.578;2022-09-27T04:11:06;2.60;;;2.40;;
982;SDS011;480;48.124;11.578;2022-09-27T04:13:33;2.43;;;2.23;;
982;SDS011;480;48.124;11.578;2022-09-27T04:16:00;2.20;;;2.00;;
982;SDS011;480;48.124;11.578;2022-09-27T04:18:28;5.93;;;2.60;;
982;SDS011;480;48.124;11.578;2022-09-27T04:20:55;2.57;;;2.37;;
982;SDS011;480;48.124;11.578;2022-09-27T04:23:22;2.60;;;2.40;;
982;SDS011;480;48.124;11.578;2022-09-27T04:25:50;2.20;;;1.90;;
982;SDS011;480;48.124;11.578;2022-09-27T04:28:17;1.70;;;1.60;;
982;SDS011;480;48.124;11.578;2022-09-27T04:30:44;2.27;;;2.07;;
982;SDS011;480;48.124;11.578;2022-09-27T04:33:13;2.27;;;2.03;;
982;SDS011;480;48.124;11.578;2022-09-27T04:35:41;2.03;;;1.83;;
982;SDS011;480;48.124;11.578;2022-09-27T04:38:26;2.23;;;2.03;;
982;SDS011;480;48.124;11.578;2022-09-27T04:40:54;4.13;;;2.77;;
982;SDS011;480;48.124;11.578;2022-09-27T04:43:21;2.57;;;2.37;;
982;SDS011;480;48.124;11.578;2022-09-27T04:45:49;2.50;;;2.30;;
982;SDS011;480;48.124;11.578;2022-09-27T04:48:16;2.20;;;2.10;;
982;SDS011;480;48.124;11.578;2022-09-27T04:50:43;2.40;;;2.03;;
982;SDS011;480;48.124;11.578;2022-09-27T04:53:11;2.50;;;2.30;;
982;SDS011;480;48.124;11.578;2022-09-27T04:55:39;3.50;;;2.33;;
982;SDS011;480;48.124;11.578;2022-09-27T04:58:11;2.73;;;1.87;;
982;SDS011;480;48.124;11.578;2022-09-27T05:00:38;2.00;;;1.80;;
982;SDS011;480;48.124;11.578;2022-09-27T05:03:06;3.47;;;2.47;;
982;SDS011;480;48.124;11.578;2022-09-27T05:05:33;2.63;;;2.40;;
982;SDS011;480;48.124;11.578;2022-09-27T05:08:01;2.10;;;1.93;;
982;SDS011;480;48.124;11.578;2022-09-27T05:10:28;3.10;;;2.43;;
982;SDS011;480;48.124;11.578;2022-09-27T05:12:55;2.97;;;1.70;;
982;SDS011;480;48.124;11.578;2022-09-27T05:15:23;3.00;;;2.13;;
982;SDS011;480;48.124;11.578;2022-09-27T05:17:51;2.10;;;1.70;;
982;SDS011;480;48.124;11.578;2022-09-27T05:20:18;1.53;;;1.50;;
982;SDS011;480;48.124;11.578;2022-09-27T05:22:45;1.63;;;1.53;;
982;SDS011;480;48.124;11.578;2022-09-27T05:25:12;2.67;;;2.07;;
982;SDS011;480;48.124;11.578;2022-09-27T05:27:39;1.33;;;1.23;;
982;SDS011;480;48.124;11.578;2022-09-27T05:30:07;1.20;;;1.20;;
982;SDS011;480;48.124;11.578;2022-09-27T05:32:37;1.30;;;1.20;;
982;SDS011;480;48.124;11.578;2022-09-27T05:35:06;1.33;;;1.20;;
982;SDS011;480;48.124;11.578;2022-09-27T05:37:33;1.37;;;1.27;;
982;SDS011;480;48.124;11.578;2022-09-27T05:40:01;1.77;;;1.40;;
982;SDS011;480;48.124;11.578;2022-09-27T05:42:28;1.43;;;1.27;;
982;SDS011;480;48.124;11.578;2022-09-27T05:44:56;1.30;;;1.20;;
982;SDS011;480;48.124;11.578;2022-09-27T05:47:24;1.23;;;1.03;;
982;SDS011;480;48.124;11.578;2022-09-27T05:49:52;1.37;;;1.00;;
982;SDS011;480;48.124;11.578;2022-09-27T05:52:19;1.00;;;1.00;;
982;SDS011;480;48.124;11.578;2022-09-27T05:54:46;0.97;;;0.80;;
982;SDS011;480;48.124;11.578;2022-09-27T05:57:13;1.80;;;1.30;;
982;SDS011;480;48.124;11.578;2022-09-27T05:59:40;1.20;;;1.00;;
982;SDS011;480;48.124;11.578;2022-09-27T06:02:08;2.20;;;0.80;;
982;SDS011;480;48.124;11.578;2022-09-27T06:04:35;1.10;;;1.00;;
982;SDS011;480;48.124;11.578;2022-09-27T06:07:04;1.57;;;0.97;;
982;SDS011;480;48.124;11.578;2022-09-27T06:09:31;1.33;;;1.07;;
982;SDS011;480;48.124;11.578;2022-09-27T06:11:58;1.03;;;0.87;;
982;SDS011;480;48.124;11.578;2022-09-27T06:14:25;2.27;;;1.30;;
982;SDS011;480;48.124;11.578;2022-09-27T06:16:52;1.47;;;1.10;;
982;SDS011;480;48.124;11.578;2022-09-27T06:19:20;0.80;;;0.80;;
982;SDS011;480;48.124;11.578;2022-09-27T06:21:48;1.63;;;0.90;;
982;SDS011;480;48.124;11.578;2022-09-27T06:24:16;0.87;;;0.80;;
982;SDS011;480;48.124;11.578;2022-09-27T06:26:43;2.57;;;1.37;;
982;SDS011;480;48.124;11.578;2022-09-27T06:29:10;1.07;;;0.97;;
982;SDS011;480;48.124;11.578;2022-09-27T06:31:38;1.77;;;0.73;;
982;SDS011;480;48.124;11.578;2022-09-27T06:34:05;0.80;;;0.80;;
982;SDS011;480;48.124;11.578;2022-09-27T06:36:32;1.77;;;1.23;;
982;SDS011;480;48.124;11.578;2022-09-27T06:38:59;0.90;;;0.90;;
982;SDS011;480;48.124;11.578;2022-09-27T06:41:28;1.33;;;0.83;;
982;SDS011;480;48.124;11.578;2022-09-27T06:43:55;1.57;;;1.03;;
982;SDS011;480;48.124;11.578;2022-09-27T06:46:22;1.10;;;1.00;;
982;SDS011;480;48.124;11.578;2022-09-27T06:48:50;0.53;;;0.53;;
982;SDS011;480;48.124;11.578;2022-09-27T06:51:17;1.00;;;0.70;;
982;SDS011;480;48.124;11.578;2022-09-27T06:53:44;3.03;;;1.23;;
982;SDS011;480;48.124;11.578;2022-09-27T06:56:11;0.77;;;0.77;;
982;SDS011;480;48.124;11.578;2022-09-27T06:58:39;1.27;;;1.27;;
982;SDS011;480;48.124;11.578;2022-09-27T07:01:26;1.17;;;1.07;;
982;SDS011;480;48.124;11.578;2022-09-27T07:03:53;3.33;;;0.83;;
982;SDS011;480;48.124;11.578;2022-09-27T07:06:22;0.63;;;0.63;;
982;SDS011;480;48.124;11.578;2022-09-27T07:08:51;1.23;;;1.23;;
982;SDS011;480;48.124;11.578;2022-09-27T07:11:18;5.63;;;1.70;;
982;SDS011;480;48.124;11.578;2022-09-27T07:13:48;3.20;;;2.40;;
982;SDS011;480;48.124;11.578;2022-09-27T07:16:16;2.90;;;1.90;;
982;SDS011;480;48.124;11.578;2022-09-27T07:18:43;2.30;;;2.10;;
982;SDS011;480;48.124;11.578;2022-09-27T07:21:10;3.57;;;2.13;;
982;SDS011;480;48.124;11.578;2022-09-27T07:23:37;2.63;;;1.13;;
982;SDS011;480;48.124;11.578;2022-09-27T07:26:05;1.33;;;1.23;;
982;SDS011;480;48.124;11.578;2022-09-27T07:28:34;1.73;;;1.00;;
982;SDS011;480;48.124;11.578;2022-09-27T07:31:03;2.10;;;1.10;;
982;SDS011;480;48.124;11.578;2022-09-27T07:33:30;1.50;;;1.10;;
982;SDS011;480;48.124;11.578;2022-09-27T07:35:58;1.47;;;1.37;;
982;SDS011;480;48.124;11.578;2022-09-27T07:38:25;1.90;;;1.00;;
982;SDS011;480;48.124;11.578;2022-09-27T07:40:53;0.87;;;0.87;;
982;SDS011;480;48.124;11.578;2022-09-27T07:43:20;1.00;;;0.90;;
982;SDS011;480;48.124;11.578;2022-09-27T07:45:47;3.63;;;0.80;;
982;SDS011;480;48.124;11.578;2022-09-27T07:48:16;1.00;;;0.90;;
982;SDS011;480;48.124;11.578;2022-09-27T07:50:43;0.90;;;0.90;;
982;SDS011;480;48.124;11.578;2022-09-27T07:53:10;0.90;;;0.90;;
982;SDS011;480;48.124;11.578;2022-09-27T07:55:38;2.00;;;0.70;;
982;SDS011;480;48.124;11.578;2022-09-27T07:58:07;1.47;;;0.67;;
982;SDS011;480;48.124;11.578;2022-09-27T08:00:35;1.73;;;1.10;;
982;SDS011;480;48.124;11.578;2022-09-27T08:03:04;0.80;;;0.80;;
982;SDS011;480;48.124;11.578;2022-09-27T08:05:34;2.73;;;1.00;;
982;SDS011;480;48.124;11.578;2022-09-27T08:08:01;0.50;;;0.50;;
982;SDS011;480;48.124;11.578;2022-09-27T08:10:28;1.10;;;0.70;;
982;SDS011;480;48.124;11.578;2022-09-27T08:12:56;1.00;;;0.90;;
982;SDS011;480;48.124;11.578;2022-09-27T08:15:25;1.10;;;0.90;;
982;SDS011;480;48.124;11.578;2022-09-27T08:17:53;0.73;;;0.60;;
982;SDS011;480;48.124;11.578;2022-09-27T08:20:21;0.70;;;0.53;;
982;SDS011;480;48.124;11.578;2022-09-27T08:22:50;0.77;;;0.60;;
982;SDS011;480;48.124;11.578;2022-09-27T08:25:17;0.40;;;0.40;;
982;SDS011;480;48.124;11.578;2022-09-27T08:27:53;1.07;;;0.50;;
982;SDS011;480;48.124;11.578;2022-09-27T08:30:21;2.43;;;1.50;;
982;SDS011;480;48.124;11.578;2022-09-27T08:32:49;0.83;;;0.60;;
982;SDS011;480;48.124;11.578;2022-09-27T08:35:20;0.60;;;0.60;;
982;SDS011;480;48.124;11.578;2022-09-27T08:37:53;0.63;;;0.63;;
982;SDS011;480;48.124;11.578;2022-09-27T08:40:20;0.60;;;0.50;;
982;SDS011;480;48.124;11.578;2022-09-27T08:42:54;5.70;;;0.77;;
982;SDS011;480;48.124;11.578;2022-09-27T08:45:28;1.93;;;1.50;;
982;SDS011;480;48.124;11.578;2022-09-27T08:48:00;0.97;;;0.87;;
982;SDS011;480;48.124;11.578;2022-09-27T08:50:30;1.33;;;0.83;;
982;SDS011;480;48.124;11.578;2022-09-27T08:53:03;0.63;;;0.53;;
982;SDS011;480;48.124;11.578;2022-09-27T08:55:34;1.60;;;0.70;;
982;SDS011;480;48.124;11.578;2022-09-27T08:58:08;0.63;;;0.63;;
982;SDS011;480;48.124;11.578;2022-09-27T09:00:40;0.77;;;0.77;;
982;SDS011;480;48.124;11.578;2022-09-27T09:03:08;0.97;;;0.60;;
982;SDS011;480;48.124;11.578;2022-09-27T09:05:46;1.17;;;0.50;;
982;SDS011;480;48.124;11.578;2022-09-27T09:08:32;1.83;;;0.80;;
982;SDS011;480;48.124;11.578;2022-09-27T09:11:07;1.23;;;1.07;;
982;SDS011;480;48.124;11.578;2022-09-27T09:14:02;5.07;;;0.90;;
982;SDS011;480;48.124;11.578;2022-09-27T09:16:43;0.60;;;0.60;;
982;SDS011;480;48.124;11.578;2022-09-27T09:19:23;0.60;;;0.60;;
982;SDS011;480;48.124;11.578;2022-09-27T09:22:11;0.50;;;0.50;;
982;SDS011;480;48.124;11.578;2022-09-27T09:24:58;0.83;;;0.73;;
982;SDS011;480;48.124;11.578;2022-09-27T09:27:36;1.03;;;0.83;;
982;SDS011;480;48.124;11.578;2022-09-27T09:30:18;0.83;;;0.57;;
982;SDS011;480;48.124;11.578;2022-09-27T09:32:50;0.50;;;0.50;;
982;SDS011;480;48.124;11.578;2022-09-27T09:35:30;0.60;;;0.60;;
982;SDS011;480;48.124;11.578;2022-09-27T09:38:03;0.73;;;0.60;;
982;SDS011;480;48.124;11.578;2022-09-27T09:40:38;3.07;;;0.80;;
982;SDS011;480;48.124;11.578;2022-09-27T09:43:09;0.60;;;0.60;;
982;SDS011;480;48.124;11.578;2022-09-27T09:45:43;0.60;;;0.60;;
982;SDS011;480;48.124;11.578;2022-09-27T09:48:15;0.87;;;0.80;;
982;SDS011;480;48.124;11.578;2022-09-27T09:50:48;0.63;;;0.63;;
982;SDS011;480;48.124;11.578;2022-09-27T09:53:19;1.57;;;0.80;;
982;SDS011;480;48.124;11.578;2022-09-27T09:55:53;0.50;;;0.50;;
982;SDS011;480;48.124;11.578;2022-09-27T09:58:27;0.60;;;0.60;;
982;SDS011;480;48.124;11.578;2022-09-27T10:01:08;1.27;;;1.17;;
982;SDS011;480;48.124;11.578;2022-09-27T10:03:39;1.10;;;0.87;;
982;SDS011;480;48.124;11.578;2022-09-27T10:06:07;1.10;;;0.80;;
982;SDS011;480;48.124;11.578;2022-09-27T10:08:35;1.13;;;1.03;;
982;SDS011;480;48.124;11.578;2022-09-27T10:11:04;0.57;;;0.57;;
982;SDS011;480;48.124;11.578;2022-09-27T10:13:32;4.30;;;2.37;;
982;SDS011;480;48.124;11.578;2022-09-27T10:16:03;1.37;;;0.90;;
982;SDS011;480;48.124;11.578;2022-09-27T10:18:33;0.60;;;0.60;;
982;SDS011;480;48.124;11.578;2022-09-27T10:21:03;0.73;;;0.60;;
982;SDS011;480;48.124;11.578;2022-09-27T10:23:32;0.70;;;0.70;;
982;SDS011;480;48.124;11.578;2022-09-27T10:26:00;0.63;;;0.50;;
982;SDS011;480;48.124;11.578;2022-09-27T10:28:39;0.57;;;0.57;;
982;SDS011;480;48.124;11.578;2022-09-27T10:31:11;0.70;;;0.70;;
982;SDS011;480;48.124;11.578;2022-09-27T10:33:53;0.90;;;0.70;;
982;SDS011;480;48.124;11.578;2022-09-27T10:36:24;0.40;;;0.40;;
982;SDS011;480;48.124;11.578;2022-09-27T10:38:54;2.50;;;1.03;;
982;SDS011;480;48.124;11.578;2022-09-27T10:41:23;2.63;;;1.03;;
982;SDS011;480;48.124;11.578;2022-09-27T10:43:58;0.80;;;0.70;;
982;SDS011;480;48.124;11.578;2022-09-27T10:46:46;0.80;;;0.80;;
982;SDS011;480;48.124;11.578;2022-09-27T10:49:17;0.70;;;0.70;;
982;SDS011;480;48.124;11.578;2022-09-27T10:51:48;0.90;;;0.90;;
982;SDS011;480;48.124;11.578;2022-09-27T10:54:18;1.30;;;1.30;;
982;SDS011;480;48.124;11.578;2022-09-27T10:56:54;1.23;;;0.77;;
982;SDS011;480;48.124;11.578;2022-09-27T10:59:25;2.20;;;0.87;;
982;SDS011;480;48.124;11.578;2022-09-27T11:01:55;1.93;;;1.60;;
982;SDS011;480;48.124;11.578;2022-09-27T11:04:27;0.70;;;0.70;;
982;SDS011;480;48.124;11.578;2022-09-27T11:07:05;0.80;;;0.80;;
982;SDS011;480;48.124;11.578;2022-09-27T11:09:44;1.93;;;1.30;;
982;SDS011;480;48.124;11.578;2022-09-27T11:12:15;1.00;;;1.00;;
982;SDS011;480;48.124;11.578;2022-09-27T11:14:49;0.73;;;0.73;;
982;SDS011;480;48.124;11.578;2022-09-27T11:17:21;1.00;;;0.90;;
982;SDS011;480;48.124;11.578;2022-09-27T11:19:56;1.23;;;0.87;;
982;SDS011;480;48.124;11.578;2022-09-27T11:22:37;1.20;;;0.93;;
982;SDS011;480;48.124;11.578;2022-09-27T11:25:27;0.60;;;0.60;;
982;SDS011;480;48.124;11.578;2022-09-27T11:28:02;1.00;;;0.87;;
982;SDS011;480;48.124;11.578;2022-09-27T11:30:43;0.90;;;0.90;;
982;SDS011;480;48.124;11.578;2022-09-27T11:36:20;0.70;;;0.70;;
982;SDS011;480;48.124;11.578;2022-09-27T11:39:01;0.60;;;0.60;;
982;SDS011;480;48.124;11.578;2022-09-27T11:41:40;0.60;;;0.60;;
982;SDS011;480;48.124;11.578;2022-09-27T11:44:31;0.60;;;0.60;;
982;SDS011;480;48.124;11.578;2022-09-27T11:47:09;0.70;;;0.60;;
982;SDS011;480;48.124;11.578;2022-09-27T11:50:02;0.60;;;0.60;;
982;SDS011;480;48.124;11.578;2022-09-27T11:52:49;0.67;;;0.50;;
982;SDS011;480;48.124;11.578;2022-09-27T11:55:32;0.70;;;0.70;;
982;SDS011;480;48.124;11.578;2022-09-27T11:58:09;0.80;;;0.70;;
982;SDS011;480;48.124;11.578;2022-09-27T12:00:54;0.60;;;0.60;;
982;SDS011;480;48.124;11.578;2022-09-27T12:06:20;0.60;;;0.60;;
982;SDS011;480;48.124;11.578;2022-09-27T12:08:56;1.20;;;0.87;;
982;SDS011;480;48.124;11.578;2022-09-27T12:11:28;0.70;;;0.60;;
982;SDS011;480;48.124;11.578;2022-09-27T12:14:01;1.20;;;1.10;;
982;SDS011;480;48.124;11.578;2022-09-27T12:16:31;1.57;;;0.80;;
982;SDS011;480;48.124;11.578;2022-09-27T12:19:01;0.60;;;0.60;;
982;SDS011;480;48.124;11.578;2022-09-27T12:21:29;0.93;;;0.80;;
982;SDS011;480;48.124;11.578;2022-09-27T12:23:57;1.30;;;0.80;;
982;SDS011;480;48.124;11.578;2022-09-27T12:26:28;0.40;;;0.40;;
982;SDS011;480;48.124;11.578;2022-09-27T12:29:04;0.73;;;0.47;;
982;SDS011;480;48.124;11.578;2022-09-27T12:31:40;0.50;;;0.50;;
982;SDS011;480;48.124;11.578;2022-09-27T12:34:14;1.63;;;0.90;;
982;SDS011;480;48.124;11.578;2022-09-27T12:36:45;0.80;;;0.70;;
982;SDS011;480;48.124;11.578;2022-09-27T12:39:17;1.10;;;1.00;;
982;SDS011;480;48.124;11.578;2022-09-27T12:41:50;0.67;;;0.67;;
982;SDS011;480;48.124;11.578;2022-09-27T12:44:26;1.00;;;0.90;;
982;SDS011;480;48.124;11.578;2022-09-27T12:46:56;1.20;;;1.00;;
982;SDS011;480;48.124;11.578;2022-09-27T12:49:37;0.70;;;0.70;;
982;SDS011;480;48.124;11.578;2022-09-27T12:52:11;0.50;;;0.50;;
982;SDS011;480;48.124;11.578;2022-09-27T12:54:57;0.80;;;0.80;;
982;SDS011;480;48.124;11.578;2022-09-27T12:57:39;0.60;;;0.60;;
982;SDS011;480;48.124;11.578;2022-09-27T13:00:16;3.00;;;0.90;;
982;SDS011;480;48.124;11.578;2022-09-27T13:02:53;0.70;;;0.60;;
982;SDS011;480;48.124;11.578;2022-09-27T13:05:52;0.80;;;0.80;;
982;SDS011;480;48.124;11.578;2022-09-27T13:11:23;1.33;;;1.00;;
982;SDS011;480;48.124;11.578;2022-09-27T13:13:55;0.97;;;0.97;;
982;SDS011;480;48.124;11.578;2022-09-27T13:16:25;1.00;;;0.77;;
982;SDS011;480;48.124;11.578;2022-09-27T13:18:54;0.90;;;0.70;;
982;SDS011;480;48.124;11.578;2022-09-27T13:24:38;0.67;;;0.67;;
982;SDS011;480;48.124;11.578;2022-09-27T13:33:20;1.07;;;0.80;;
982;SDS011;480;48.124;11.578;2022-09-27T13:36:07;0.70;;;0.70;;
982;SDS011;480;48.124;11.578;2022-09-27T13:38:52;0.80;;;0.80;;
982;SDS011;480;48.124;11.578;2022-09-27T13:41:54;0.70;;;0.70;;
982;SDS011;480;48.124;11.578;2022-09-27T13:44:33;1.47;;;1.20;;
982;SDS011;480;48.124;11.578;2022-09-27T13:47:14;1.00;;;1.00;;
982;SDS011;480;48.124;11.578;2022-09-27T13:49:51;2.63;;;2.17;;
982;SDS011;480;48.124;11.578;2022-09-27T13:52:22;2.50;;;0.50;;
982;SDS011;480;48.124;11.578;2022-09-27T13:54:55;1.27;;;0.90;;
982;SDS011;480;48.124;11.578;2022-09-27T13:57:40;0.90;;;0.80;;
982;SDS011;480;48.124;11.578;2022-09-27T14:00:12;0.60;;;0.60;;
982;SDS011;480;48.124;11.578;2022-09-27T14:02:45;1.17;;;0.87;;
982;SDS011;480;48.124;11.578;2022-09-27T14:05:20;0.70;;;0.70;;
982;SDS011;480;48.124;11.578;2022-09-27T14:07:51;1.90;;;1.00;;
982;SDS011;480;48.124;11.578;2022-09-27T14:10:21;1.47;;;1.37;;
982;SDS011;480;48.124;11.578;2022-09-27T14:12:49;1.07;;;0.80;;
982;SDS011;480;48.124;11.578;2022-09-27T14:15:19;1.13;;;0.80;;
982;SDS011;480;48.124;11.578;2022-09-27T14:17:49;0.70;;;0.70;;
982;SDS011;480;48.124;11.578;2022-09-27T14:20:32;1.67;;;1.30;;
982;SDS011;480;48.124;11.578;2022-09-27T14:23:04;1.90;;;1.10;;
982;SDS011;480;48.124;11.578;2022-09-27T14:25:33;0.83;;;0.83;;
982;SDS011;480;48.124;11.578;2022-09-27T14:28:15;2.17;;;1.13;;
982;SDS011;480;48.124;11.578;2022-09-27T14:30:45;0.70;;;0.70;;
982;SDS011;480;48.124;11.578;2022-09-27T14:33:25;0.70;;;0.60;;
982;SDS011;480;48.124;11.578;2022-09-27T14:35:53;4.83;;;0.70;;
982;SDS011;480;48.124;11.578;2022-09-27T14:38:38;1.00;;;0.73;;
982;SDS011;480;48.124;11.578;2022-09-27T14:41:08;0.70;;;0.70;;
982;SDS011;480;48.124;11.578;2022-09-27T14:43:35;2.80;;;0.93;;
982;SDS011;480;48.124;11.578;2022-09-27T14:46:22;1.23;;;1.10;;
982;SDS011;480;48.124;11.578;2022-09-27T14:48:51;3.50;;;0.80;;
982;SDS011;480;48.124;11.578;2022-09-27T14:51:20;0.70;;;0.70;;
982;SDS011;480;48.124;11.578;2022-09-27T14:53:53;1.83;;;1.70;;
982;SDS011;480;48.124;11.578;2022-09-27T14:56:25;4.00;;;1.50;;
982;SDS011;480;48.124;11.578;2022-09-27T14:58:57;0.90;;;0.90;;
982;SDS011;480;48.124;11.578;2022-09-27T15:01:27;3.30;;;1.30;;
982;SDS011;480;48.124;11.578;2022-09-27T15:03:55;1.13;;;1.03;;
982;SDS011;480;48.124;11.578;2022-09-27T15:06:28;1.13;;;0.90;;
982;SDS011;480;48.124;11.578;2022-09-27T15:08:56;1.10;;;1.00;;
982;SDS011;480;48.124;11.578;2022-09-27T15:11:25;2.10;;;0.93;;
982;SDS011;480;48.124;11.578;2022-09-27T15:13:53;0.73;;;0.70;;
982;SDS011;480;48.124;11.578;2022-09-27T15:16:22;1.20;;;1.10;;
982;SDS011;480;48.124;11.578;2022-09-27T15:18:57;1.13;;;1.10;;
982;SDS011;480;48.124;11.578;2022-09-27T15:21:28;1.50;;;1.27;;
982;SDS011;480;48.124;11.578;2022-09-27T15:23:56;1.90;;;1.10;;
982;SDS011;480;48.124;11.578;2022-09-27T15:26:26;1.37;;;1.20;;
982;SDS011;480;48.124;11.578;2022-09-27T15:29:01;2.50;;;1.10;;
982;SDS011;480;48.124;11.578;2022-09-27T15:31:28;1.67;;;0.93;;
982;SDS011;480;48.124;11.578;2022-09-27T15:33:57;1.50;;;1.23;;
982;SDS011;480;48.124;11.578;2022-09-27T15:39:17;0.70;;;0.70;;
982;SDS011;480;48.124;11.578;2022-09-27T15:42:03;1.07;;;1.07;;
982;SDS011;480;48.124;11.578;2022-09-27T15:44:34;1.50;;;1.40;;
982;SDS011;480;48.124;11.578;2022-09-27T15:50:36;7.60;;;1.50;;
982;SDS011;480;48.124;11.578;2022-09-27T15:53:04;0.80;;;0.80;;
982;SDS011;480;48.124;11.578;2022-09-27T15:55:34;0.83;;;0.83;;
982;SDS011;480;48.124;11.578;2022-09-27T15:58:06;2.47;;;1.00;;
982;SDS011;480;48.124;11.578;2022-09-27T16:00:49;1.50;;;1.03;;
982;SDS011;480;48.124;11.578;2022-09-27T16:03:16;1.47;;;0.93;;
982;SDS011;480;48.124;11.578;2022-09-27T16:05:43;0.90;;;0.90;;
982;SDS011;480;48.124;11.578;2022-09-27T16:08:10;1.57;;;1.43;;
982;SDS011;480;48.124;11.578;2022-09-27T16:10:38;1.43;;;1.30;;
982;SDS011;480;48.124;11.578;2022-09-27T16:13:08;1.67;;;1.57;;
982;SDS011;480;48.124;11.578;2022-09-27T16:15:35;1.27;;;1.20;;
982;SDS011;480;48.124;11.578;2022-09-27T16:18:03;0.87;;;0.83;;
982;SDS011;480;48.124;11.578;2022-09-27T16:20:30;1.70;;;1.10;;
982;SDS011;480;48.124;11.578;2022-09-27T16:22:57;1.07;;;1.00;;
982;SDS011;480;48.124;11.578;2022-09-27T16:25:24;1.40;;;1.30;;
982;SDS011;480;48.124;11.578;2022-09-27T16:27:53;1.07;;;1.07;;